Terminal Aerodrome Forecast
Issued by NWS Shreveport, LA

Home | Current Version | Previous Version | Text Only | Print | Product List | Glossary On
Versions: 1 2 3 4 5 6 7 8 9 10 11 12 13 14 15 16 17
000
FTUS44 KSHV 171900 AAB
TAFMLU
TAF AMD
KMLU 171915Z 1719/1818 VRB06KT P6SM VCSH BKN040
     FM172100 VRB05KT P6SM VCSH BKN045
     FM180500 VRB03KT P6SM VCSH BKN040
     FM181000 VRB03KT P6SM VCSH OVC010
     FM181300 01004KT P6SM BKN025 BKN080=

USA.gov is the U.S. government's official web portal to all federal, state and local government web resources and services.